Portada
METAR-TAF:

METAR-TAF

Aeropuertos :

Aeropuerto de Semey

Semey, Kazajistán

latitud: 50-21-05N, longitud: 080-14-04E, altitud: 232 m

Observación

El informe se hizo hace 29 minutos, a las 12:30 UTC
Viento 6 kt del este
Temperatura -13°C
Humedad 85%
Presión 1031 hPa
Visibilidad: 6000 m

METAR: UASS 231230Z 08003MPS 6000 NSC M13/M15 Q1031 R26/85//50 NOSIG RMK QFE755/1006

Hora: 18:59 (12:59 UTC)

Pronóstico

El informe se hizo hace 1 hora y 51 minutos, a las 11:08 UTC
Pronóstico válido del 23 a las 12 UTC al 23 a las 21 UTC
Viento 10 kt del sur-sureste
Visibilidad 10 km o más
Nubes dispersas a una altura de 5000 ft

TAF: UASS 231108Z 2312/2321 15005MPS 9999 SCT050

Observaciones y pronósticos meteorológicos de más de 4000 aeropuertos (mensajes METAR y TAF).

Los puntos amarillos y rojos representan las estaciones disponibles.

Ponga el ratón en el punto deseado para ver el nombre de la estación.

Haga clic para ver las observaciones y los pronósticos meteorológicos.

Para cambiar el mapa : haga clic en los botones verdes con una cruz de color negro para hacer un zoom, en el botón verde con un guión para alejar o en las flechas verdes para mapas adyacentes.


METAR-TAF: